Terminal Aerodrome Forecast
Issued by NWS Charleston, WV

Current Version | Previous Version | Graphics & Text | Print | Product List | Glossary On
Versions: 1 2 3 4 5 6 7 8 9 10 11 12 13 14 15 16 17 18 19 20 21 22 23 24
797
FTUS41 KRLX 180226 AAA
TAFEKN
TAF AMD
KEKN 180226Z 1802/1824 25005KT P6SM OVC025
      TEMPO 1802/1805 4SM -RAPLSN BR OVC015
     FM180500 28009G15KT 5SM -SN OVC012
      TEMPO 1805/1809 2SM -SNDZ OVC006
     FM180900 29009G15KT 6SM -FZDZ OVC008
     FM181400 30007KT P6SM BKN015
     FM181600 28004KT P6SM SCT035=

USA.gov is the U.S. government's official web portal to all federal, state and local government web resources and services.